Time;durP1;ratioP1;P1;durP2;ratioP2;P2;SDS_P1;SDS_P2;PMS_P1;PMS_P2;Temp;Humidity;BMP_temperature;BMP_pressure;BME280_temperature;BME280_humidity;BME280_pressure;Samples;Min_cycle;Max_cycle;Signal;HPM_P1;HPM_P2
2023/06/08 00:02:06;;;;;;;15.95;9.00;;;;;;;;;;5088808;28;20513;-75
2023/06/08 00:04:40;;;;;;;15.82;9.00;;;;;;;;;;5105845;28;20048;-76
2023/06/08 00:07:14;;;;;;;17.02;8.75;;;;;;;;;;5104944;28;20047;-77
2023/06/08 00:09:45;;;;;;;17.52;7.80;;;;;;;;;;5105548;28;20043;-77
2023/06/08 00:12:16;;;;;;;13.63;7.28;;;;;;;;;;5105746;28;20052;-77
2023/06/08 00:14:47;;;;;;;14.60;7.40;;;;;;;;;;5102823;28;20028;-76
2023/06/08 00:17:17;;;;;;;17.50;7.47;;;;;;;;;;5104698;28;20043;-77
2023/06/08 00:19:52;;;;;;;15.02;9.45;;;;;;;;;;5105718;28;20047;-78
2023/06/08 00:22:24;;;;;;;16.75;7.88;;;;;;;;;;5086693;28;20095;-74
2023/06/08 00:24:54;;;;;;;17.33;9.40;;;;;;;;;;5103925;28;20433;-75
2023/06/08 00:27:25;;;;;;;14.20;7.82;;;;;;;;;;5103620;28;20051;-76
2023/06/08 00:29:57;;;;;;;17.27;6.85;;;;;;;;;;5104433;28;20044;-75
2023/06/08 00:32:27;;;;;;;14.35;6.95;;;;;;;;;;5105100;28;20051;-76
2023/06/08 00:34:57;;;;;;;20.90;7.45;;;;;;;;;;5105711;28;20043;-74
2023/06/08 00:37:28;;;;;;;17.98;8.48;;;;;;;;;;5105314;28;20044;-75
2023/06/08 00:40:02;;;;;;;16.17;7.90;;;;;;;;;;5105107;28;20039;-76
2023/06/08 00:42:33;;;;;;;19.23;8.98;;;;;;;;;;5086171;28;20398;-75
2023/06/08 00:45:04;;;;;;;17.80;8.35;;;;;;;;;;5086676;28;20056;-74
2023/06/08 00:47:35;;;;;;;14.25;8.63;;;;;;;;;;5104466;28;20506;-77
2023/06/08 00:50:08;;;;;;;18.98;10.60;;;;;;;;;;5105869;28;20062;-75
2023/06/08 00:52:39;;;;;;;13.70;8.75;;;;;;;;;;5105432;28;20040;-77
2023/06/08 00:55:12;;;;;;;15.32;6.90;;;;;;;;;;5088162;28;20146;-74
2023/06/08 00:57:47;;;;;;;20.48;7.65;;;;;;;;;;5105098;28;20043;-76
2023/06/08 01:00:19;;;;;;;15.43;6.80;;;;;;;;;;5086534;28;20062;-76
2023/06/08 01:02:50;;;;;;;19.65;13.18;;;;;;;;;;5086710;28;20102;-75
2023/06/08 01:05:23;;;;;;;18.45;9.13;;;;;;;;;;5085977;28;20082;-77
2023/06/08 01:08:20;;;;;;;23.02;11.07;;;;;;;;;;5086509;28;20383;-75
2023/06/08 01:11:27;;;;;;;19.17;11.13;;;;;;;;;;5086649;28;20498;-74
2023/06/08 01:14:06;;;;;;;21.60;8.90;;;;;;;;;;5104224;28;20056;-77
2023/06/08 01:16:44;;;;;;;42.30;26.17;;;;;;;;;;5105414;28;20358;-75
2023/06/08 01:19:23;;;;;;;90.47;54.08;;;;;;;;;;5105322;28;20050;-75
2023/06/08 01:22:12;;;;;;;54.53;30.15;;;;;;;;;;5108731;28;20054;-75
2023/06/08 01:24:49;;;;;;;45.83;27.80;;;;;;;;;;5108836;28;20044;-75
2023/06/08 01:27:20;;;;;;;25.30;14.05;;;;;;;;;;5108942;28;20044;-75
2023/06/08 01:29:51;;;;;;;28.05;13.93;;;;;;;;;;5090487;28;20054;-75
2023/06/08 01:32:23;;;;;;;22.42;11.68;;;;;;;;;;5108543;28;20050;-77
2023/06/08 01:34:56;;;;;;;20.63;10.65;;;;;;;;;;5109263;28;20044;-76
2023/06/08 01:37:42;;;;;;;15.45;9.48;;;;;;;;;;5108959;28;20048;-77
2023/06/08 01:40:25;;;;;;;18.30;9.45;;;;;;;;;;5109313;28;20501;-76
2023/06/08 01:42:59;;;;;;;18.25;9.13;;;;;;;;;;5089674;28;20062;-75
2023/06/08 01:45:34;;;;;;;15.10;8.30;;;;;;;;;;5108671;28;20043;-74
2023/06/08 01:48:06;;;;;;;14.10;9.23;;;;;;;;;;5089813;28;20052;-77
2023/06/08 01:50:39;;;;;;;16.02;7.43;;;;;;;;;;5108522;28;20391;-75
2023/06/08 01:53:11;;;;;;;16.10;8.20;;;;;;;;;;5108429;28;20505;-76
2023/06/08 01:55:41;;;;;;;13.07;8.15;;;;;;;;;;5108175;28;20051;-76
2023/06/08 01:58:13;;;;;;;11.98;7.78;;;;;;;;;;5090441;28;20051;-75
2023/06/08 02:00:44;;;;;;;17.13;8.35;;;;;;;;;;5089422;28;20082;-75
2023/06/08 02:03:14;;;;;;;14.20;8.50;;;;;;;;;;5089196;28;20055;-77
2023/06/08 02:05:46;;;;;;;16.10;8.48;;;;;;;;;;5107652;28;20048;-76
2023/06/08 02:08:17;;;;;;;14.23;8.63;;;;;;;;;;5107979;28;20058;-76
2023/06/08 02:10:48;;;;;;;17.90;9.60;;;;;;;;;;5108308;28;20054;-77
2023/06/08 02:13:19;;;;;;;20.08;9.35;;;;;;;;;;5108007;28;20051;-77
2023/06/08 02:15:51;;;;;;;14.63;7.75;;;;;;;;;;5089978;28;20044;-75
2023/06/08 02:18:21;;;;;;;17.17;8.90;;;;;;;;;;5107663;28;20047;-75
2023/06/08 02:20:51;;;;;;;13.07;8.73;;;;;;;;;;5107758;28;20058;-76
2023/06/08 02:23:21;;;;;;;16.10;7.78;;;;;;;;;;5108011;28;20054;-77
2023/06/08 02:25:52;;;;;;;14.65;8.02;;;;;;;;;;5108037;28;20073;-76
2023/06/08 02:28:23;;;;;;;17.70;8.15;;;;;;;;;;5107865;28;20062;-75
2023/06/08 02:30:54;;;;;;;14.05;8.35;;;;;;;;;;5088883;28;20043;-74
2023/06/08 02:33:23;;;;;;;12.52;7.18;;;;;;;;;;5087626;28;20069;-75
2023/06/08 02:35:54;;;;;;;15.68;7.70;;;;;;;;;;5107418;28;20047;-76
2023/06/08 02:38:26;;;;;;;12.88;8.32;;;;;;;;;;5107349;28;20048;-74
2023/06/08 02:40:58;;;;;;;17.52;7.93;;;;;;;;;;5088471;28;20059;-75
2023/06/08 02:43:28;;;;;;;14.15;7.57;;;;;;;;;;5106757;28;20060;-74
2023/06/08 02:46:00;;;;;;;13.02;7.70;;;;;;;;;;5107328;28;20043;-76
2023/06/08 02:48:32;;;;;;;14.02;8.00;;;;;;;;;;5089063;28;20047;-74
2023/06/08 02:51:03;;;;;;;15.88;7.80;;;;;;;;;;5107382;28;20502;-76
2023/06/08 02:53:37;;;;;;;13.13;7.55;;;;;;;;;;5088402;28;20056;-75
2023/06/08 02:56:07;;;;;;;14.70;8.35;;;;;;;;;;5107373;28;20059;-74
2023/06/08 02:58:41;;;;;;;12.32;8.65;;;;;;;;;;5106957;28;20080;-75
2023/06/08 03:01:16;;;;;;;;;;;;;;;;;;5107504;28;20853;-75
2023/06/08 03:04:12;;;;;;;15.93;7.70;;;;;;;;;;5088210;28;19924;-75
2023/06/08 03:06:55;;;;;;;12.80;7.32;;;;;;;;;;5088131;28;20533;-75
2023/06/08 03:09:30;;;;;;;11.40;8.23;;;;;;;;;;5088107;28;20051;-74
2023/06/08 03:12:05;;;;;;;12.52;8.05;;;;;;;;;;5088384;28;20051;-76
2023/06/08 03:14:38;;;;;;;15.13;7.50;;;;;;;;;;5087968;28;20043;-76
2023/06/08 03:17:10;;;;;;;19.77;7.78;;;;;;;;;;5088344;28;20540;-76
2023/06/08 03:19:46;;;;;;;13.70;8.32;;;;;;;;;;5088066;28;20052;-75
2023/06/08 03:22:20;;;;;;;17.70;8.63;;;;;;;;;;5088773;28;20083;-74
2023/06/08 03:25:00;;;;;;;15.63;8.45;;;;;;;;;;5087183;28;20055;-76
2023/06/08 03:27:32;;;;;;;12.32;8.07;;;;;;;;;;5087905;28;20048;-74
2023/06/08 03:30:08;;;;;;;18.33;8.00;;;;;;;;;;5087655;28;20391;-75
2023/06/08 03:32:51;;;;;;;11.65;7.68;;;;;;;;;;5088358;28;20054;-76
2023/06/08 03:35:28;;;;;;;16.95;8.32;;;;;;;;;;5088022;28;20055;-73
2023/06/08 03:38:15;;;;;;;14.07;8.20;;;;;;;;;;5099332;28;20048;-76
2023/06/08 03:40:45;;;;;;;14.50;8.52;;;;;;;;;;5098978;28;20074;-74
2023/06/08 03:43:17;;;;;;;15.13;7.93;;;;;;;;;;5098350;28;20048;-74
2023/06/08 03:45:49;;;;;;;14.05;8.02;;;;;;;;;;5096952;28;20048;-74
2023/06/08 03:48:20;;;;;;;15.48;7.97;;;;;;;;;;5092910;28;20043;-73
2023/06/08 03:50:51;;;;;;;12.70;7.95;;;;;;;;;;5106697;28;20051;-73
2023/06/08 03:53:22;;;;;;;14.20;7.47;;;;;;;;;;5087842;28;20052;-77
2023/06/08 03:55:53;;;;;;;15.38;8.10;;;;;;;;;;5087247;28;20071;-76
2023/06/08 03:58:24;;;;;;;13.38;7.57;;;;;;;;;;5105859;28;20051;-73
2023/06/08 04:00:56;;;;;;;13.98;7.45;;;;;;;;;;5087045;28;20520;-74
2023/06/08 04:03:28;;;;;;;16.27;8.13;;;;;;;;;;5105705;28;20507;-73
2023/06/08 04:05:59;;;;;;;15.82;7.93;;;;;;;;;;5087392;28;20055;-76
2023/06/08 04:08:33;;;;;;;16.58;7.53;;;;;;;;;;5105570;28;20050;-74
2023/06/08 04:11:04;;;;;;;11.98;7.68;;;;;;;;;;5087190;28;20044;-75
2023/06/08 04:13:38;;;;;;;11.63;7.63;;;;;;;;;;5087187;28;20050;-77
2023/06/08 04:16:14;;;;;;;13.70;7.68;;;;;;;;;;5087287;28;20580;-75
2023/06/08 04:18:49;;;;;;;14.00;7.13;;;;;;;;;;5087162;28;20058;-75
2023/06/08 04:21:25;;;;;;;13.93;7.82;;;;;;;;;;5087218;28;20434;-75
2023/06/08 04:24:00;;;;;;;13.60;7.18;;;;;;;;;;5086717;28;20048;-73
2023/06/08 04:26:34;;;;;;;13.27;8.18;;;;;;;;;;5088047;28;20636;-74
2023/06/08 04:29:06;;;;;;;11.85;7.43;;;;;;;;;;5087551;28;20524;-75
2023/06/08 04:31:39;;;;;;;12.65;7.32;;;;;;;;;;5087297;28;20414;-75
2023/06/08 04:34:10;;;;;;;13.27;6.88;;;;;;;;;;5086649;28;20047;-75
2023/06/08 04:36:43;;;;;;;14.68;7.68;;;;;;;;;;5105492;28;20065;-75
2023/06/08 04:39:15;;;;;;;14.40;7.63;;;;;;;;;;5086607;28;20051;-76
2023/06/08 04:41:47;;;;;;;13.68;7.40;;;;;;;;;;5086696;28;20067;-73
2023/06/08 04:44:20;;;;;;;12.55;7.78;;;;;;;;;;5086842;28;20048;-74
2023/06/08 04:46:56;;;;;;;16.10;8.75;;;;;;;;;;5087322;28;20053;-73
2023/06/08 04:49:34;;;;;;;12.88;7.15;;;;;;;;;;5086712;28;20050;-75
2023/06/08 04:52:08;;;;;;;9.95;5.63;;;;;;;;;;5105664;28;20058;-76
2023/06/08 04:54:38;;;;;;;13.70;6.97;;;;;;;;;;5105148;28;20044;-75
2023/06/08 04:57:09;;;;;;;10.50;6.43;;;;;;;;;;5090419;28;20457;-72
2023/06/08 04:59:40;;;;;;;12.43;7.10;;;;;;;;;;5109777;28;20044;-74
2023/06/08 05:02:12;;;;;;;10.63;6.88;;;;;;;;;;5108387;28;20059;-77
2023/06/08 05:04:43;;;;;;;14.32;8.70;;;;;;;;;;5108994;28;20718;-74
2023/06/08 05:07:13;;;;;;;15.55;7.70;;;;;;;;;;5109717;28;20043;-74
2023/06/08 05:09:45;;;;;;;10.40;6.80;;;;;;;;;;5108465;28;20075;-75
2023/06/08 05:12:15;;;;;;;11.88;7.78;;;;;;;;;;5109272;28;20043;-74
2023/06/08 05:14:45;;;;;;;17.42;7.57;;;;;;;;;;5109332;28;20051;-74
2023/06/08 05:17:15;;;;;;;12.80;7.20;;;;;;;;;;5109196;28;20044;-75
2023/06/08 05:19:50;;;;;;;13.18;7.65;;;;;;;;;;5109331;28;20520;-74
2023/06/08 05:22:20;;;;;;;14.98;7.03;;;;;;;;;;5109101;28;20059;-73
2023/06/08 05:24:51;;;;;;;11.90;8.20;;;;;;;;;;5090707;28;20046;-74
2023/06/08 05:27:21;;;;;;;15.88;7.78;;;;;;;;;;5109166;28;20383;-74
2023/06/08 05:29:51;;;;;;;13.05;7.85;;;;;;;;;;5108789;28;20051;-74
2023/06/08 05:32:22;;;;;;;12.57;7.65;;;;;;;;;;5108995;28;20039;-74
2023/06/08 05:34:54;;;;;;;14.23;7.82;;;;;;;;;;5108583;28;20039;-74
2023/06/08 05:37:25;;;;;;;12.65;7.75;;;;;;;;;;5109517;28;20051;-74
2023/06/08 05:39:55;;;;;;;15.60;8.18;;;;;;;;;;5108828;28;20071;-74
2023/06/08 05:42:26;;;;;;;21.15;7.35;;;;;;;;;;5108338;28;20055;-75
2023/06/08 05:44:56;;;;;;;13.10;7.47;;;;;;;;;;5089917;28;20051;-73
2023/06/08 05:47:27;;;;;;;16.83;7.78;;;;;;;;;;5108652;28;20054;-74
2023/06/08 05:50:03;;;;;;;13.98;7.82;;;;;;;;;;5108713;28;20047;-74
2023/06/08 05:52:34;;;;;;;12.38;6.80;;;;;;;;;;5109042;28;20054;-73
2023/06/08 05:55:05;;;;;;;8.70;6.28;;;;;;;;;;5108120;28;20402;-75
2023/06/08 05:57:40;;;;;;;;;;;;;;;;;;5109045;28;20051;-74
2023/06/08 06:00:12;;;;;;;11.82;6.97;;;;;;;;;;5108168;28;19930;-76
2023/06/08 06:02:42;;;;;;;11.95;6.90;;;;;;;;;;5107022;28;20055;-72
2023/06/08 06:05:16;;;;;;;12.73;7.85;;;;;;;;;;5108335;28;20051;-75
2023/06/08 06:07:46;;;;;;;13.05;7.28;;;;;;;;;;5107699;28;20047;-74
2023/06/08 06:10:16;;;;;;;14.32;7.40;;;;;;;;;;5108651;28;20544;-74
2023/06/08 06:12:47;;;;;;;8.77;6.47;;;;;;;;;;5108145;28;20071;-75
2023/06/08 06:15:19;;;;;;;9.98;7.18;;;;;;;;;;5107885;28;20039;-74
2023/06/08 06:17:49;;;;;;;11.38;7.20;;;;;;;;;;5107757;28;20052;-76
2023/06/08 06:20:22;;;;;;;12.13;7.03;;;;;;;;;;5108316;28;20052;-74
2023/06/08 06:22:52;;;;;;;14.07;7.13;;;;;;;;;;5107517;28;20050;-73
2023/06/08 06:25:26;;;;;;;11.18;6.65;;;;;;;;;;5089503;28;20052;-75
2023/06/08 06:27:57;;;;;;;9.57;5.63;;;;;;;;;;5108191;28;20047;-72
2023/06/08 06:30:28;;;;;;;9.90;6.18;;;;;;;;;;5088861;28;20091;-72
2023/06/08 06:32:57;;;;;;;10.75;6.43;;;;;;;;;;5107669;28;20046;-73
2023/06/08 06:35:28;;;;;;;11.10;6.90;;;;;;;;;;5108180;28;20048;-75
2023/06/08 06:37:59;;;;;;;14.57;7.13;;;;;;;;;;5107591;28;20047;-74
2023/06/08 06:40:31;;;;;;;12.70;7.32;;;;;;;;;;5107994;28;20170;-74
2023/06/08 06:43:01;;;;;;;11.30;6.80;;;;;;;;;;5108109;28;20052;-74
2023/06/08 06:45:54;;;;;;;11.13;7.03;;;;;;;;;;5096958;28;20047;-76
2023/06/08 06:48:25;;;;;;;11.63;7.60;;;;;;;;;;5107994;28;20051;-75
2023/06/08 06:50:56;;;;;;;12.93;7.07;;;;;;;;;;5108349;28;20050;-75
2023/06/08 06:53:26;;;;;;;13.70;7.40;;;;;;;;;;5107603;28;20513;-74
2023/06/08 06:56:00;;;;;;;10.55;7.10;;;;;;;;;;5107115;28;20063;-74
2023/06/08 06:58:31;;;;;;;13.23;7.43;;;;;;;;;;5107767;28;20058;-75
2023/06/08 07:01:03;;;;;;;13.52;6.97;;;;;;;;;;5107942;28;20066;-76
2023/06/08 07:03:33;;;;;;;14.88;7.38;;;;;;;;;;5106892;28;20040;-74
2023/06/08 07:06:04;;;;;;;11.48;7.43;;;;;;;;;;5107199;28;20039;-74
2023/06/08 07:08:36;;;;;;;11.63;7.20;;;;;;;;;;5107569;28;20055;-74
2023/06/08 07:11:07;;;;;;;11.43;7.40;;;;;;;;;;5107839;28;20040;-74
2023/06/08 07:13:38;;;;;;;8.52;6.75;;;;;;;;;;5107187;28;20098;-74
2023/06/08 07:16:08;;;;;;;10.07;6.75;;;;;;;;;;5089757;28;20047;-74
2023/06/08 07:18:38;;;;;;;10.23;6.68;;;;;;;;;;5107031;28;20051;-75
2023/06/08 07:21:10;;;;;;;9.80;6.57;;;;;;;;;;5107527;28;20047;-75
2023/06/08 07:23:42;;;;;;;10.15;7.00;;;;;;;;;;5106672;28;20052;-74
2023/06/08 07:26:32;;;;;;;14.30;7.18;;;;;;;;;;5106928;28;20044;-76
2023/06/08 07:29:03;;;;;;;10.75;6.57;;;;;;;;;;5106674;28;20039;-76
2023/06/08 07:31:38;;;;;;;10.60;6.55;;;;;;;;;;5106984;28;20050;-74
2023/06/08 07:34:08;;;;;;;14.30;7.18;;;;;;;;;;5106579;28;20410;-74
2023/06/08 07:36:39;;;;;;;13.23;7.70;;;;;;;;;;5088654;28;20051;-76
2023/06/08 07:39:09;;;;;;;16.08;7.53;;;;;;;;;;5105907;28;20506;-74
2023/06/08 07:41:40;;;;;;;9.70;6.72;;;;;;;;;;5088522;28;20486;-76
2023/06/08 07:44:11;;;;;;;12.80;6.82;;;;;;;;;;5105359;28;20509;-74
2023/06/08 07:46:42;;;;;;;12.77;7.72;;;;;;;;;;5106383;28;20388;-76
2023/06/08 07:49:12;;;;;;;19.58;7.85;;;;;;;;;;5106617;28;20054;-74
2023/06/08 07:51:45;;;;;;;12.10;7.30;;;;;;;;;;5105828;28;20048;-76
2023/06/08 07:54:19;;;;;;;12.20;7.35;;;;;;;;;;5106153;28;20069;-76
2023/06/08 07:56:50;;;;;;;11.10;7.22;;;;;;;;;;5106043;28;20058;-74
2023/06/08 07:59:19;;;;;;;12.38;7.55;;;;;;;;;;5105938;28;20436;-74
2023/06/08 08:01:51;;;;;;;10.80;6.78;;;;;;;;;;5105738;28;20498;-75
2023/06/08 08:04:22;;;;;;;11.93;7.28;;;;;;;;;;5106219;28;20043;-76
2023/06/08 08:06:52;;;;;;;10.65;7.35;;;;;;;;;;5106266;28;20050;-74
2023/06/08 08:09:22;;;;;;;15.88;7.13;;;;;;;;;;5105670;28;20044;-74
2023/06/08 08:11:52;;;;;;;14.63;7.18;;;;;;;;;;5105721;28;20417;-74
2023/06/08 08:14:29;;;;;;;;;;;;;;;;;;5106152;28;20043;-75
2023/06/08 08:17:00;;;;;;;13.23;6.93;;;;;;;;;;5105969;28;19923;-81
2023/06/08 08:19:31;;;;;;;11.38;7.00;;;;;;;;;;5105474;28;20486;-76
2023/06/08 08:22:01;;;;;;;12.45;6.68;;;;;;;;;;5088506;28;20070;-77
2023/06/08 08:24:32;;;;;;;15.95;7.22;;;;;;;;;;5087069;28;20062;-75
2023/06/08 08:27:04;;;;;;;12.02;6.50;;;;;;;;;;5105246;28;20048;-76
2023/06/08 08:29:34;;;;;;;9.50;6.65;;;;;;;;;;5105168;28;20047;-76
2023/06/08 08:32:04;;;;;;;11.05;6.57;;;;;;;;;;5105264;28;20066;-76
2023/06/08 08:34:35;;;;;;;10.98;7.22;;;;;;;;;;5105465;28;20391;-75
2023/06/08 08:37:06;;;;;;;11.10;7.00;;;;;;;;;;5105392;28;20051;-74
2023/06/08 08:39:38;;;;;;;15.63;7.32;;;;;;;;;;5105228;28;20411;-74
2023/06/08 08:42:12;;;;;;;11.57;6.50;;;;;;;;;;5105275;28;20414;-76
2023/06/08 08:44:43;;;;;;;14.27;8.57;;;;;;;;;;5105171;28;20078;-76
2023/06/08 08:47:14;;;;;;;12.45;7.30;;;;;;;;;;5105362;28;20043;-76
2023/06/08 08:49:53;;;;;;;12.90;7.63;;;;;;;;;;5105156;28;20541;-74
2023/06/08 08:52:29;;;;;;;14.40;7.57;;;;;;;;;;5105729;28;20047;-76
2023/06/08 08:55:04;;;;;;;13.18;8.10;;;;;;;;;;5105733;28;20581;-76
2023/06/08 08:57:41;;;;;;;10.85;7.55;;;;;;;;;;5105180;28;20051;-76
2023/06/08 09:00:14;;;;;;;11.45;7.30;;;;;;;;;;5105190;28;20052;-76
2023/06/08 09:02:44;;;;;;;11.98;7.20;;;;;;;;;;5104971;28;20542;-75
2023/06/08 09:05:16;;;;;;;14.05;8.68;;;;;;;;;;5104920;28;20406;-77
2023/06/08 09:07:47;;;;;;;13.63;8.10;;;;;;;;;;5105349;28;20052;-76
2023/06/08 09:10:24;;;;;;;14.88;7.93;;;;;;;;;;5105142;28;20490;-75
2023/06/08 09:12:56;;;;;;;15.32;8.10;;;;;;;;;;5104704;28;20055;-76
2023/06/08 09:15:34;;;;;;;11.77;7.60;;;;;;;;;;5105493;28;20041;-75
2023/06/08 09:18:31;;;;;;;13.48;7.80;;;;;;;;;;5105129;28;20051;-76
2023/06/08 09:21:26;;;;;;;11.10;7.30;;;;;;;;;;5102935;28;20063;-76
2023/06/08 09:24:06;;;;;;;11.13;6.97;;;;;;;;;;5087347;28;20051;-76
2023/06/08 09:26:51;;;;;;;9.38;6.63;;;;;;;;;;5105448;28;20075;-76
2023/06/08 09:29:40;;;;;;;12.25;7.07;;;;;;;;;;5104570;28;20055;-76
2023/06/08 09:32:13;;;;;;;9.65;6.95;;;;;;;;;;5087054;28;20047;-76
2023/06/08 09:34:51;;;;;;;11.35;7.10;;;;;;;;;;5104452;28;20044;-75
2023/06/08 09:37:27;;;;;;;13.60;7.00;;;;;;;;;;5104721;28;20047;-76
2023/06/08 09:40:07;;;;;;;14.45;7.25;;;;;;;;;;5104573;28;20048;-75
2023/06/08 09:42:44;;;;;;;10.27;6.75;;;;;;;;;;5107899;28;20039;-77
2023/06/08 09:45:15;;;;;;;15.85;7.88;;;;;;;;;;5109096;28;20035;-75
2023/06/08 09:47:46;;;;;;;12.25;6.90;;;;;;;;;;5108779;28;20051;-75
2023/06/08 09:50:18;;;;;;;12.05;7.00;;;;;;;;;;5108369;28;20058;-76
2023/06/08 09:52:51;;;;;;;9.43;7.15;;;;;;;;;;5108106;28;20062;-75
2023/06/08 09:55:21;;;;;;;9.43;6.10;;;;;;;;;;5108228;28;20043;-75
2023/06/08 09:57:52;;;;;;;9.88;6.85;;;;;;;;;;5108663;28;20055;-77
2023/06/08 10:00:29;;;;;;;8.70;5.95;;;;;;;;;;5108570;28;20047;-77
2023/06/08 10:03:31;;;;;;;11.43;6.70;;;;;;;;;;5108271;28;20513;-76
2023/06/08 10:06:04;;;;;;;11.32;6.88;;;;;;;;;;5108130;28;20521;-75
2023/06/08 10:08:38;;;;;;;11.00;7.03;;;;;;;;;;5108239;28;20055;-76
2023/06/08 10:11:11;;;;;;;11.77;7.35;;;;;;;;;;5108815;28;20047;-76
2023/06/08 10:13:43;;;;;;;13.73;6.95;;;;;;;;;;5089233;28;20063;-75
2023/06/08 10:16:13;;;;;;;10.50;6.57;;;;;;;;;;5108454;28;20044;-76
2023/06/08 10:18:45;;;;;;;9.88;6.70;;;;;;;;;;5107338;28;20054;-76
2023/06/08 10:21:16;;;;;;;10.98;6.18;;;;;;;;;;5107800;28;20043;-76
2023/06/08 10:23:47;;;;;;;7.63;5.13;;;;;;;;;;5107960;28;20059;-76
2023/06/08 10:26:18;;;;;;;13.50;6.50;;;;;;;;;;5108456;28;20513;-76
2023/06/08 10:29:10;;;;;;;18.40;8.05;;;;;;;;;;5089457;28;20047;-79
2023/06/08 10:31:51;;;;;;;15.40;6.65;;;;;;;;;;5107449;28;20058;-75
2023/06/08 10:34:22;;;;;;;16.23;6.70;;;;;;;;;;5106337;28;20410;-76
2023/06/08 10:36:53;;;;;;;13.73;6.57;;;;;;;;;;5089546;28;20059;-77
2023/06/08 10:39:23;;;;;;;16.50;6.85;;;;;;;;;;5089488;28;20051;-78
2023/06/08 10:41:57;;;;;;;11.45;6.65;;;;;;;;;;5107195;28;20502;-76
2023/06/08 10:44:34;;;;;;;13.55;7.07;;;;;;;;;;5106968;28;20047;-76
2023/06/08 10:47:09;;;;;;;18.08;6.80;;;;;;;;;;5107890;28;20035;-77
2023/06/08 10:49:44;;;;;;;12.30;6.80;;;;;;;;;;5107993;28;20039;-76
2023/06/08 10:52:20;;;;;;;19.52;6.72;;;;;;;;;;5107085;28;20044;-75
2023/06/08 10:55:05;;;;;;;11.98;7.43;;;;;;;;;;5106178;28;20044;-76
2023/06/08 10:57:37;;;;;;;12.55;6.95;;;;;;;;;;5088870;28;20078;-76
2023/06/08 11:00:27;;;;;;;9.98;7.15;;;;;;;;;;5106847;28;20043;-76
2023/06/08 11:03:00;;;;;;;11.73;6.95;;;;;;;;;;5106939;28;20039;-76
2023/06/08 11:05:36;;;;;;;11.05;6.43;;;;;;;;;;5106890;28;20047;-76
2023/06/08 11:08:07;;;;;;;11.90;6.97;;;;;;;;;;5106722;28;20039;-76
2023/06/08 11:10:39;;;;;;;9.85;6.97;;;;;;;;;;5107156;28;20043;-76
2023/06/08 11:13:17;;;;;;;16.20;7.30;;;;;;;;;;5106648;28;20055;-77
2023/06/08 11:15:48;;;;;;;10.90;6.63;;;;;;;;;;5106745;28;21390;-76
2023/06/08 11:18:20;;;;;;;12.00;6.45;;;;;;;;;;5106623;28;20058;-75
2023/06/08 11:20:50;;;;;;;15.30;6.72;;;;;;;;;;5107218;28;20039;-77
2023/06/08 11:23:24;;;;;;;10.30;6.50;;;;;;;;;;5105792;28;20055;-75
2023/06/08 11:25:55;;;;;;;11.68;6.55;;;;;;;;;;5106188;28;20062;-75
2023/06/08 11:28:26;;;;;;;12.57;6.32;;;;;;;;;;5106608;28;20509;-75
2023/06/08 11:30:59;;;;;;;18.08;14.00;;;;;;;;;;5106542;28;20047;-79
2023/06/08 11:33:30;;;;;;;8.80;6.60;;;;;;;;;;5106479;28;20039;-76
2023/06/08 11:36:01;;;;;;;6.80;4.70;;;;;;;;;;5106786;28;20043;-76
2023/06/08 11:38:34;;;;;;;14.77;5.22;;;;;;;;;;5106089;28;20046;-76
2023/06/08 11:41:04;;;;;;;6.35;4.22;;;;;;;;;;5106554;28;20524;-76
2023/06/08 11:43:34;;;;;;;7.15;4.30;;;;;;;;;;5105925;28;20058;-74
2023/06/08 11:46:06;;;;;;;5.78;4.10;;;;;;;;;;5106447;28;20055;-76
2023/06/08 11:48:36;;;;;;;6.22;3.88;;;;;;;;;;5088233;28;20802;-76
2023/06/08 11:51:07;;;;;;;6.43;4.10;;;;;;;;;;5105934;28;20051;-75
2023/06/08 11:53:38;;;;;;;7.93;5.20;;;;;;;;;;5106386;28;20054;-76
2023/06/08 11:56:09;;;;;;;7.07;4.95;;;;;;;;;;5084025;28;20051;-75
2023/06/08 11:58:40;;;;;;;8.88;5.18;;;;;;;;;;5085956;28;20048;-75
2023/06/08 12:01:13;;;;;;;10.70;4.53;;;;;;;;;;5084919;28;20064;-75
2023/06/08 12:03:46;;;;;;;9.48;5.40;;;;;;;;;;5083099;28;20540;-75
2023/06/08 12:06:24;;;;;;;11.32;5.75;;;;;;;;;;5085570;28;20071;-75
2023/06/08 12:08:54;;;;;;;6.53;4.25;;;;;;;;;;5085675;28;20048;-77
2023/06/08 12:11:25;;;;;;;11.57;5.15;;;;;;;;;;5086286;28;20047;-77
2023/06/08 12:14:00;;;;;;;13.90;5.10;;;;;;;;;;5084860;28;20537;-74
2023/06/08 12:16:42;;;;;;;10.88;4.85;;;;;;;;;;5085958;28;20071;-76
2023/06/08 12:19:13;;;;;;;19.25;5.20;;;;;;;;;;5084033;28;20047;-76
2023/06/08 12:21:43;;;;;;;6.03;4.50;;;;;;;;;;5085913;28;20494;-77
2023/06/08 12:24:13;;;;;;;5.60;4.38;;;;;;;;;;5085446;28;20067;-76
2023/06/08 12:26:45;;;;;;;7.88;4.10;;;;;;;;;;5085303;28;20051;-75
2023/06/08 12:29:18;;;;;;;9.43;4.25;;;;;;;;;;5085088;28;20434;-77
2023/06/08 12:31:51;;;;;;;11.07;8.60;;;;;;;;;;5085435;28;20050;-77
2023/06/08 12:34:21;;;;;;;5.43;3.95;;;;;;;;;;5084790;28;20048;-77
2023/06/08 12:36:53;;;;;;;5.82;3.35;;;;;;;;;;5085141;28;20052;-76
2023/06/08 12:39:25;;;;;;;5.72;3.50;;;;;;;;;;5085116;28;20036;-77
2023/06/08 12:41:57;;;;;;;9.13;3.90;;;;;;;;;;5085164;28;20048;-79
2023/06/08 12:44:27;;;;;;;29.02;18.17;;;;;;;;;;5085481;28;20039;-75
2023/06/08 12:46:59;;;;;;;9.07;4.80;;;;;;;;;;5084599;28;20058;-77
2023/06/08 12:49:31;;;;;;;6.85;4.32;;;;;;;;;;5084853;28;20047;-76
2023/06/08 12:52:02;;;;;;;9.85;3.83;;;;;;;;;;5084957;28;20044;-77
2023/06/08 12:54:32;;;;;;;5.53;3.72;;;;;;;;;;5084875;28;20052;-75
2023/06/08 12:57:03;;;;;;;13.98;5.85;;;;;;;;;;5082688;28;20056;-74
2023/06/08 12:59:34;;;;;;;12.48;5.13;;;;;;;;;;5085035;28;20499;-75
2023/06/08 13:02:04;;;;;;;8.25;4.50;;;;;;;;;;5084885;28;20063;-74
2023/06/08 13:04:35;;;;;;;12.35;6.18;;;;;;;;;;5084567;28;20048;-74
2023/06/08 13:07:05;;;;;;;7.90;5.07;;;;;;;;;;5085233;28;20040;-77
2023/06/08 13:09:39;;;;;;;9.95;5.03;;;;;;;;;;5085368;28;20048;-74
2023/06/08 13:12:10;;;;;;;32.60;23.98;;;;;;;;;;5084972;28;20044;-75
2023/06/08 13:14:41;;;;;;;10.32;3.92;;;;;;;;;;5085231;28;20162;-75
2023/06/08 13:17:13;;;;;;;7.43;3.60;;;;;;;;;;5087183;28;20051;-76
2023/06/08 13:19:45;;;;;;;10.13;4.18;;;;;;;;;;5088254;28;20063;-76
2023/06/08 13:22:17;;;;;;;6.80;3.90;;;;;;;;;;5088676;28;20048;-76
2023/06/08 13:24:48;;;;;;;13.45;3.90;;;;;;;;;;5088611;28;20044;-77
2023/06/08 13:27:19;;;;;;;10.15;4.85;;;;;;;;;;5088848;28;20048;-77
2023/06/08 13:29:49;;;;;;;9.48;4.38;;;;;;;;;;5088658;28;20044;-74
2023/06/08 13:32:20;;;;;;;9.63;4.03;;;;;;;;;;5088697;28;20525;-76
2023/06/08 13:34:52;;;;;;;10.45;6.38;;;;;;;;;;5088290;28;20498;-76
2023/06/08 13:37:23;;;;;;;12.68;4.78;;;;;;;;;;5088638;28;20106;-76
2023/06/08 13:39:54;;;;;;;12.73;7.00;;;;;;;;;;5088547;28;20044;-75
2023/06/08 13:42:27;;;;;;;8.05;4.60;;;;;;;;;;5088153;28;20048;-76
2023/06/08 13:45:01;;;;;;;8.27;4.57;;;;;;;;;;5088939;28;20048;-76
2023/06/08 13:47:31;;;;;;;7.88;4.10;;;;;;;;;;5088725;28;20429;-75
2023/06/08 13:50:09;;;;;;;8.23;4.78;;;;;;;;;;5087555;28;20061;-76
2023/06/08 13:52:41;;;;;;;8.77;4.43;;;;;;;;;;5088531;28;20048;-76
2023/06/08 13:55:11;;;;;;;13.55;6.55;;;;;;;;;;5088526;28;20040;-74
2023/06/08 13:57:42;;;;;;;14.27;4.50;;;;;;;;;;5088168;28;20051;-75
2023/06/08 14:00:13;;;;;;;12.98;5.72;;;;;;;;;;5086707;28;20414;-75
2023/06/08 14:02:47;;;;;;;7.95;4.15;;;;;;;;;;5088280;28;20044;-76
2023/06/08 14:05:20;;;;;;;7.90;4.03;;;;;;;;;;5085156;28;20498;-74
2023/06/08 14:07:50;;;;;;;9.73;4.15;;;;;;;;;;5084925;28;20601;-76
2023/06/08 14:10:21;;;;;;;7.05;3.90;;;;;;;;;;5087815;28;20051;-74
2023/06/08 14:12:52;;;;;;;13.73;4.85;;;;;;;;;;5086490;28;20380;-76
2023/06/08 14:15:22;;;;;;;8.38;4.47;;;;;;;;;;5087456;28;20048;-76
2023/06/08 14:17:56;;;;;;;8.63;4.28;;;;;;;;;;5086993;28;20040;-74
2023/06/08 14:20:28;;;;;;;9.02;6.18;;;;;;;;;;5085655;28;20071;-76
2023/06/08 14:22:59;;;;;;;10.07;5.22;;;;;;;;;;5088069;28;20052;-75
2023/06/08 14:25:32;;;;;;;6.13;4.20;;;;;;;;;;5087306;28;20059;-74
2023/06/08 14:28:06;;;;;;;10.63;3.97;;;;;;;;;;5088101;28;20044;-79
2023/06/08 14:30:37;;;;;;;6.15;3.28;;;;;;;;;;5088230;28;20044;-75
2023/06/08 14:33:11;;;;;;;9.55;5.18;;;;;;;;;;5087595;28;20043;-75
2023/06/08 14:35:42;;;;;;;6.85;3.72;;;;;;;;;;5087334;28;20048;-76
2023/06/08 14:38:14;;;;;;;14.25;4.03;;;;;;;;;;5087241;28;20509;-76
2023/06/08 14:40:45;;;;;;;6.30;3.40;;;;;;;;;;5087841;28;20517;-77
2023/06/08 14:43:15;;;;;;;4.80;3.13;;;;;;;;;;5087410;28;20066;-76
2023/06/08 14:45:45;;;;;;;6.78;3.30;;;;;;;;;;5087300;28;20048;-76
2023/06/08 14:48:17;;;;;;;8.27;3.33;;;;;;;;;;5086897;28;20066;-78
2023/06/08 14:50:48;;;;;;;8.75;3.63;;;;;;;;;;5087356;28;20044;-78
2023/06/08 14:53:18;;;;;;;6.95;3.53;;;;;;;;;;5085465;28;20059;-75
2023/06/08 14:55:51;;;;;;;5.30;3.30;;;;;;;;;;5087369;28;20503;-76
2023/06/08 14:58:22;;;;;;;5.07;3.30;;;;;;;;;;5085264;28;20458;-75
2023/06/08 15:00:53;;;;;;;7.97;3.63;;;;;;;;;;5083613;28;20063;-74
2023/06/08 15:03:32;;;;;;;5.53;4.20;;;;;;;;;;5084610;28;20056;-77
2023/06/08 15:06:04;;;;;;;9.23;5.40;;;;;;;;;;5087032;28;20059;-75
2023/06/08 15:08:36;;;;;;;10.02;3.60;;;;;;;;;;5086566;28;20048;-76